Time;durP1;ratioP1;P1;durP2;ratioP2;P2;SDS_P1;SDS_P2;PMS_P1;PMS_P2;Temp;Humidity;BMP_temperature;BMP_pressure;BME280_temperature;BME280_humidity;BME280_pressure;Samples;Min_cycle;Max_cycle;Signal;HPM_P1;HPM_P2
2021/12/08 00:04:16;;;;;;;4.97;4.50;;;;;;;;;;10247180;28;20518;-59
2021/12/08 00:09:27;;;;;;;5.28;4.78;;;;;;;;;;10247658;28;20191;-59
2021/12/08 00:14:25;;;;;;;4.15;3.75;;;;;;;;;;10248744;28;20079;-59
2021/12/08 00:19:23;;;;;;;4.13;3.78;;;;;;;;;;10253726;28;20175;-59
2021/12/08 00:24:25;;;;;;;7.07;6.07;;;;;;;;;;10249792;28;20076;-59
2021/12/08 00:29:23;;;;;;;7.40;5.32;;;;;;;;;;10248243;28;20069;-59
2021/12/08 00:34:21;;;;;;;6.72;6.00;;;;;;;;;;10243849;28;20080;-59
2021/12/08 00:39:20;;;;;;;6.82;5.68;;;;;;;;;;10247641;28;20068;-59
2021/12/08 00:44:19;;;;;;;5.45;4.72;;;;;;;;;;10246649;28;20065;-59
2021/12/08 00:49:17;;;;;;;5.65;4.50;;;;;;;;;;10250359;28;20087;-59
2021/12/08 00:54:16;;;;;;;3.88;3.47;;;;;;;;;;10243532;28;20069;-59
2021/12/08 00:59:14;;;;;;;4.47;4.07;;;;;;;;;;10248352;28;20069;-59
2021/12/08 01:04:15;;;;;;;3.70;3.40;;;;;;;;;;10245764;28;20076;-59
2021/12/08 01:09:15;;;;;;;3.78;3.45;;;;;;;;;;10250227;28;20084;-59
2021/12/08 01:14:13;;;;;;;5.35;4.85;;;;;;;;;;10249352;28;20077;-58
2021/12/08 01:19:11;;;;;;;4.32;3.92;;;;;;;;;;10247913;28;20387;-59
2021/12/08 01:24:11;;;;;;;4.53;4.13;;;;;;;;;;10247027;28;20036;-58
2021/12/08 01:29:09;;;;;;;4.93;4.30;;;;;;;;;;10245859;28;20056;-57
2021/12/08 01:34:07;;;;;;;4.28;3.88;;;;;;;;;;10247185;28;20073;-58
2021/12/08 01:39:06;;;;;;;4.70;4.30;;;;;;;;;;10250145;28;20065;-58
2021/12/08 01:49:22;;;;;;;5.60;4.63;;;;;;;;;;10244073;28;20084;-58
2021/12/08 01:54:20;;;;;;;5.22;4.10;;;;;;;;;;10245389;28;20091;-58
2021/12/08 01:59:20;;;;;;;4.50;3.92;;;;;;;;;;10243224;28;20068;-57
2021/12/08 02:04:18;;;;;;;5.10;4.07;;;;;;;;;;10242256;28;20094;-57
2021/12/08 02:09:17;;;;;;;6.25;4.55;;;;;;;;;;10247250;28;20061;-58
2021/12/08 02:14:16;;;;;;;6.07;4.75;;;;;;;;;;10248242;28;20121;-58
2021/12/08 02:19:19;;;;;;;5.22;4.72;;;;;;;;;;10249236;28;20073;-58
2021/12/08 02:24:20;;;;;;;4.72;3.97;;;;;;;;;;10242019;28;20053;-58
2021/12/08 02:29:24;;;;;;;3.75;3.42;;;;;;;;;;10242951;28;20390;-57
2021/12/08 02:50:11;;;;;;;4.15;3.75;;;;;;;;;;10240681;28;20065;-57
2021/12/08 02:55:11;;;;;;;4.40;4.00;;;;;;;;;;10242895;28;20088;-57
2021/12/08 03:00:11;;;;;;;4.20;3.78;;;;;;;;;;10248610;28;20139;-58
2021/12/08 03:05:09;;;;;;;4.03;3.67;;;;;;;;;;10252451;28;20068;-58
2021/12/08 03:10:09;;;;;;;4.13;3.78;;;;;;;;;;10252487;28;20073;-58
2021/12/08 03:15:10;;;;;;;5.32;4.82;;;;;;;;;;10249510;28;20087;-58
2021/12/08 03:20:11;;;;;;;7.55;5.13;;;;;;;;;;10248517;28;20041;-58
2021/12/08 03:25:12;;;;;;;6.10;5.47;;;;;;;;;;10252043;28;20045;-58
2021/12/08 03:30:16;;;;;;;4.93;4.50;;;;;;;;;;10249513;28;20461;-55
2021/12/08 03:35:16;;;;;;;6.88;6.22;;;;;;;;;;10253918;28;20085;-58
2021/12/08 03:40:16;;;;;;;5.10;4.70;;;;;;;;;;10246868;28;20076;-58
2021/12/08 03:45:17;;;;;;;5.65;4.97;;;;;;;;;;10252711;28;20071;-58
2021/12/08 03:50:17;;;;;;;6.30;5.68;;;;;;;;;;10254482;28;20475;-59
2021/12/08 03:55:16;;;;;;;5.25;4.80;;;;;;;;;;10250027;28;20092;-59
2021/12/08 04:00:17;;;;;;;5.55;5.05;;;;;;;;;;10251668;28;20510;-57
2021/12/08 04:05:19;;;;;;;6.22;5.05;;;;;;;;;;10247701;28;20085;-59
2021/12/08 04:10:19;;;;;;;5.88;5.30;;;;;;;;;;10249259;28;20528;-56
2021/12/08 04:15:21;;;;;;;6.75;5.43;;;;;;;;;;10249356;28;20084;-58
2021/12/08 04:20:21;;;;;;;5.80;5.13;;;;;;;;;;10249559;28;20049;-58
2021/12/08 04:25:21;;;;;;;6.55;5.93;;;;;;;;;;10247771;28;20069;-57
2021/12/08 04:30:22;;;;;;;15.48;10.23;;;;;;;;;;10247174;28;20426;-58
2021/12/08 04:35:21;;;;;;;9.30;7.32;;;;;;;;;;10251041;28;20072;-57
2021/12/08 04:40:26;;;;;;;11.02;8.43;;;;;;;;;;10244348;28;20077;-58
2021/12/08 04:45:34;;;;;;;9.15;7.47;;;;;;;;;;10251262;28;20079;-58
2021/12/08 04:51:03;;;;;;;6.90;6.20;;;;;;;;;;10249847;28;20141;-57
2021/12/08 05:01:57;;;;;;;9.88;8.88;;;;;;;;;;10141788;28;20073;-58
2021/12/08 05:07:13;;;;;;;13.18;10.23;;;;;;;;;;10234981;28;20076;-58
2021/12/08 05:12:13;;;;;;;6.82;6.13;;;;;;;;;;10248326;28;20073;-58
2021/12/08 05:17:14;;;;;;;7.93;7.13;;;;;;;;;;10246491;28;20505;-59
2021/12/08 05:22:14;;;;;;;11.25;9.10;;;;;;;;;;10251058;28;20064;-59
2021/12/08 05:27:15;;;;;;;11.68;10.57;;;;;;;;;;10244418;28;20045;-59
2021/12/08 05:32:15;;;;;;;13.13;10.20;;;;;;;;;;10250885;28;20068;-59
2021/12/08 05:37:15;;;;;;;15.88;12.75;;;;;;;;;;10250736;28;20475;-59
2021/12/08 05:42:15;;;;;;;10.68;9.57;;;;;;;;;;10245646;28;20501;-58
2021/12/08 05:47:17;;;;;;;12.20;10.02;;;;;;;;;;10248174;28;20073;-59
2021/12/08 05:52:15;;;;;;;20.92;18.55;;;;;;;;;;10245985;28;20056;-57
2021/12/08 05:57:15;;;;;;;9.25;8.30;;;;;;;;;;10243621;28;20118;-59
2021/12/08 06:02:16;;;;;;;8.75;7.82;;;;;;;;;;10244083;28;20065;-59
2021/12/08 06:07:15;;;;;;;13.88;10.75;;;;;;;;;;10247510;28;20065;-57
2021/12/08 06:12:13;;;;;;;10.90;9.80;;;;;;;;;;10239739;28;20128;-56
2021/12/08 06:17:13;;;;;;;15.18;13.05;;;;;;;;;;10236853;28;20548;-59
2021/12/08 06:22:17;;;;;;;15.50;12.18;;;;;;;;;;10240517;28;20128;-58
2021/12/08 06:27:15;;;;;;;17.77;14.23;;;;;;;;;;10243859;28;20073;-57
2021/12/08 06:32:14;;;;;;;25.10;18.83;;;;;;;;;;10246631;28;20065;-58
2021/12/08 06:37:14;;;;;;;47.60;23.40;;;;;;;;;;10252214;28;20322;-58
2021/12/08 06:42:16;;;;;;;30.25;19.83;;;;;;;;;;10248503;28;20336;-57
2021/12/08 06:47:19;;;;;;;32.17;22.23;;;;;;;;;;10243182;28;20550;-59
2021/12/08 06:52:19;;;;;;;24.70;20.08;;;;;;;;;;10242800;28;20084;-59
2021/12/08 06:57:22;;;;;;;18.85;15.95;;;;;;;;;;10245697;28;20522;-57
2021/12/08 07:02:37;;;;;;;18.17;16.17;;;;;;;;;;10247901;28;20072;-59
2021/12/08 07:07:36;;;;;;;24.52;18.80;;;;;;;;;;10241287;28;20068;-58
2021/12/08 07:12:37;;;;;;;25.77;17.95;;;;;;;;;;10242647;28;20060;-59
2021/12/08 07:17:37;;;;;;;22.52;15.88;;;;;;;;;;10241917;28;20080;-58
2021/12/08 07:22:35;;;;;;;27.85;20.77;;;;;;;;;;10243319;28;20057;-58
2021/12/08 07:27:35;;;;;;;29.85;22.75;;;;;;;;;;10243522;28;20510;-58
2021/12/08 07:32:36;;;;;;;27.50;21.98;;;;;;;;;;10241807;28;20171;-59
2021/12/08 07:37:35;;;;;;;31.83;22.73;;;;;;;;;;10236517;28;20061;-59
2021/12/08 07:42:35;;;;;;;33.28;23.67;;;;;;;;;;10242789;28;20073;-59
2021/12/08 07:47:35;;;;;;;28.30;22.65;;;;;;;;;;10248429;28;20081;-59
2021/12/08 07:52:34;;;;;;;25.02;19.02;;;;;;;;;;10247372;28;20072;-56
2021/12/08 07:57:34;;;;;;;32.65;23.65;;;;;;;;;;10245862;28;20585;-59
2021/12/08 08:02:32;;;;;;;31.15;24.00;;;;;;;;;;10246416;28;20537;-59
2021/12/08 08:07:32;;;;;;;33.70;24.23;;;;;;;;;;10246232;28;20394;-58
2021/12/08 08:12:33;;;;;;;31.77;23.15;;;;;;;;;;10246936;28;20072;-58
2021/12/08 08:17:36;;;;;;;37.00;28.70;;;;;;;;;;10244721;28;20072;-58
2021/12/08 08:22:36;;;;;;;37.67;28.23;;;;;;;;;;10249327;28;20494;-59
2021/12/08 08:27:34;;;;;;;40.38;27.08;;;;;;;;;;10248617;28;20065;-59
2021/12/08 08:32:35;;;;;;;29.17;24.52;;;;;;;;;;10253130;28;20384;-58
2021/12/08 08:37:34;;;;;;;36.28;27.58;;;;;;;;;;10250538;28;20068;-59
2021/12/08 08:42:35;;;;;;;52.65;33.85;;;;;;;;;;10248975;28;20056;-59
2021/12/08 08:47:36;;;;;;;35.15;26.67;;;;;;;;;;10249349;28;20509;-59
2021/12/08 08:52:37;;;;;;;31.50;24.77;;;;;;;;;;10247925;28;20454;-58
2021/12/08 08:57:38;;;;;;;34.40;27.45;;;;;;;;;;10244725;28;20514;-60
2021/12/08 09:02:38;;;;;;;29.98;23.23;;;;;;;;;;10247836;28;20416;-59
2021/12/08 09:07:40;;;;;;;45.80;34.08;;;;;;;;;;10247363;28;20093;-59
2021/12/08 09:12:42;;;;;;;44.80;30.00;;;;;;;;;;10244474;28;20057;-59
2021/12/08 09:17:43;;;;;;;40.28;33.00;;;;;;;;;;10242171;28;20117;-59
2021/12/08 09:22:43;;;;;;;30.85;22.20;;;;;;;;;;10245204;28;20087;-59
2021/12/08 09:27:48;;;;;;;37.38;26.90;;;;;;;;;;10244833;28;20457;-59
2021/12/08 09:32:47;;;;;;;153.75;92.57;;;;;;;;;;10244417;28;20095;-59
2021/12/08 09:37:47;;;;;;;109.70;77.90;;;;;;;;;;10242390;28;20522;-58
2021/12/08 09:42:49;;;;;;;41.92;26.73;;;;;;;;;;10247273;28;20076;-58
2021/12/08 09:47:47;;;;;;;35.60;23.40;;;;;;;;;;10248744;28;20502;-59
2021/12/08 09:52:47;;;;;;;37.20;26.77;;;;;;;;;;10246100;28;20518;-59
2021/12/08 09:57:47;;;;;;;28.45;20.15;;;;;;;;;;10244523;28;20076;-60
2021/12/08 10:02:45;;;;;;;58.15;37.53;;;;;;;;;;10241941;28;20029;-59
2021/12/08 10:07:44;;;;;;;59.30;37.42;;;;;;;;;;10240616;28;20465;-59
2021/12/08 10:12:42;;;;;;;63.00;43.53;;;;;;;;;;10242002;28;20104;-60
2021/12/08 10:17:42;;;;;;;44.10;31.20;;;;;;;;;;10244815;28;20520;-60
2021/12/08 10:22:41;;;;;;;46.55;31.40;;;;;;;;;;10242278;28;20064;-59
2021/12/08 10:27:58;;;;;;;57.13;35.05;;;;;;;;;;10244099;28;20048;-60
2021/12/08 10:32:59;;;;;;;46.58;34.83;;;;;;;;;;10240047;28;20545;-60
2021/12/08 10:37:59;;;;;;;40.50;28.70;;;;;;;;;;10240933;28;20432;-59
2021/12/08 10:42:57;;;;;;;40.78;27.40;;;;;;;;;;10245065;28;20072;-60
2021/12/08 10:47:59;;;;;;;51.58;38.38;;;;;;;;;;10242227;28;20484;-60
2021/12/08 10:58:21;;;;;;;59.60;41.20;;;;;;;;;;10246347;28;20076;-60
2021/12/08 11:03:21;;;;;;;90.32;54.00;;;;;;;;;;10242027;28;20060;-60
2021/12/08 11:08:25;;;;;;;66.05;43.25;;;;;;;;;;10240677;28;20076;-60
2021/12/08 11:13:25;;;;;;;52.90;35.55;;;;;;;;;;10243839;28;20083;-60
2021/12/08 11:18:26;;;;;;;42.22;27.33;;;;;;;;;;10244682;28;20069;-60
2021/12/08 11:23:46;;;;;;;36.67;27.85;;;;;;;;;;10249648;28;20075;-60
2021/12/08 11:28:45;;;;;;;41.22;28.88;;;;;;;;;;10247318;28;20076;-58
2021/12/08 11:33:49;;;;;;;35.33;24.55;;;;;;;;;;10245528;28;20113;-58
2021/12/08 11:38:48;;;;;;;39.42;27.20;;;;;;;;;;10245007;28;20525;-58
2021/12/08 11:43:50;;;;;;;29.35;22.30;;;;;;;;;;10251717;28;20061;-58
2021/12/08 11:48:54;;;;;;;44.33;29.52;;;;;;;;;;10250897;28;20460;-58
2021/12/08 11:53:53;;;;;;;40.78;28.73;;;;;;;;;;10248344;28;20391;-59
2021/12/08 11:58:55;;;;;;;43.65;29.17;;;;;;;;;;10245851;28;20191;-58
2021/12/08 12:03:55;;;;;;;66.28;40.75;;;;;;;;;;10246847;28;20061;-59
2021/12/08 12:08:53;;;;;;;69.00;43.90;;;;;;;;;;10246798;28;20061;-59
2021/12/08 12:14:12;;;;;;;51.70;36.17;;;;;;;;;;10246829;28;20080;-60
2021/12/08 12:19:16;;;;;;;58.88;39.20;;;;;;;;;;10245509;28;20064;-59
2021/12/08 12:24:28;;;;;;;35.33;25.83;;;;;;;;;;10247154;28;20061;-59
2021/12/08 12:29:36;;;;;;;38.95;24.85;;;;;;;;;;10247876;28;20084;-59
2021/12/08 12:34:36;;;;;;;46.85;32.00;;;;;;;;;;10247577;28;20064;-58
2021/12/08 12:39:34;;;;;;;42.15;30.20;;;;;;;;;;10246866;28;20076;-58
2021/12/08 12:44:33;;;;;;;40.65;28.35;;;;;;;;;;10242042;28;20450;-58
2021/12/08 12:49:32;;;;;;;43.53;29.40;;;;;;;;;;10245399;28;20068;-59
2021/12/08 12:54:32;;;;;;;30.02;22.58;;;;;;;;;;10249520;28;20061;-59
2021/12/08 12:59:38;;;;;;;45.53;34.03;;;;;;;;;;10246071;28;20091;-59
2021/12/08 13:04:50;;;;;;;38.22;29.88;;;;;;;;;;10246537;28;20219;-59
2021/12/08 13:09:53;;;;;;;39.67;30.15;;;;;;;;;;10251189;28;20495;-59
2021/12/08 13:15:06;;;;;;;35.92;26.85;;;;;;;;;;10248507;28;20161;-59
2021/12/08 13:20:06;;;;;;;55.50;34.10;;;;;;;;;;10242846;28;20069;-59
2021/12/08 13:25:22;;;;;;;54.30;36.90;;;;;;;;;;10245585;28;20069;-59
2021/12/08 13:30:20;;;;;;;;;;;;;;;;;;10242917;28;20103;-59
2021/12/08 13:35:31;;;;;;;44.72;31.88;;;;;;;;;;10244111;28;19983;-59
2021/12/08 13:40:45;;;;;;;43.17;31.27;;;;;;;;;;10245954;28;20083;-59
2021/12/08 13:45:43;;;;;;;42.45;28.42;;;;;;;;;;10246852;28;20411;-60
2021/12/08 13:50:43;;;;;;;77.72;49.90;;;;;;;;;;10245836;28;20060;-59
2021/12/08 13:55:43;;;;;;;54.67;39.67;;;;;;;;;;10242567;28;20085;-59
2021/12/08 14:00:44;;;;;;;65.28;52.95;;;;;;;;;;10244625;28;20091;-59
2021/12/08 14:05:45;;;;;;;53.60;41.10;;;;;;;;;;10242434;28;20500;-59
2021/12/08 14:10:46;;;;;;;67.00;55.38;;;;;;;;;;10241547;28;20076;-59
2021/12/08 14:15:47;;;;;;;45.30;33.72;;;;;;;;;;10248025;28;20086;-60
2021/12/08 14:20:46;;;;;;;37.55;28.02;;;;;;;;;;10245671;28;20069;-59
2021/12/08 14:25:47;;;;;;;42.40;29.95;;;;;;;;;;10242976;28;20487;-59
2021/12/08 14:30:47;;;;;;;60.20;42.58;;;;;;;;;;10240906;28;20068;-59
2021/12/08 14:35:55;;;;;;;128.32;71.50;;;;;;;;;;10239337;28;20061;-59
2021/12/08 14:40:54;;;;;;;143.52;73.57;;;;;;;;;;10243524;28;20073;-59
2021/12/08 14:46:08;;;;;;;68.80;49.58;;;;;;;;;;10246048;28;20084;-60
2021/12/08 14:51:10;;;;;;;74.10;45.50;;;;;;;;;;10245923;28;20164;-59
2021/12/08 14:56:09;;;;;;;79.20;52.25;;;;;;;;;;10249506;28;20467;-60
2021/12/08 15:01:12;;;;;;;68.93;46.38;;;;;;;;;;10250346;28;20085;-59
2021/12/08 15:06:15;;;;;;;60.45;41.15;;;;;;;;;;10254669;28;20057;-59
2021/12/08 15:11:18;;;;;;;74.70;47.90;;;;;;;;;;10255651;28;20077;-60
2021/12/08 15:16:20;;;;;;;95.13;64.30;;;;;;;;;;10250712;28;20489;-60
2021/12/08 15:21:35;;;;;;;80.30;54.28;;;;;;;;;;10246687;28;20542;-59
2021/12/08 15:26:33;;;;;;;51.78;39.33;;;;;;;;;;10252253;28;20099;-59
2021/12/08 15:31:34;;;;;;;54.03;37.22;;;;;;;;;;10254183;28;20088;-59
2021/12/08 15:36:34;;;;;;;51.72;36.08;;;;;;;;;;10246870;28;20411;-59
2021/12/08 15:41:35;;;;;;;56.95;39.25;;;;;;;;;;10249101;28;20080;-59
2021/12/08 15:46:35;;;;;;;102.55;66.53;;;;;;;;;;10247896;28;20478;-59
2021/12/08 15:51:37;;;;;;;62.00;40.33;;;;;;;;;;10247861;28;20064;-59
2021/12/08 15:56:37;;;;;;;45.25;32.67;;;;;;;;;;10249569;28;20642;-60
2021/12/08 16:01:42;;;;;;;50.95;33.67;;;;;;;;;;10249615;28;20073;-59
2021/12/08 16:06:42;;;;;;;39.10;27.58;;;;;;;;;;10246490;28;20072;-59
2021/12/08 16:11:40;;;;;;;49.38;33.33;;;;;;;;;;10247306;28;20471;-59
2021/12/08 16:16:40;;;;;;;56.03;36.92;;;;;;;;;;10246635;28;20072;-59
2021/12/08 16:21:39;;;;;;;83.30;55.20;;;;;;;;;;10251399;28;20447;-60
2021/12/08 16:26:37;;;;;;;48.85;33.85;;;;;;;;;;10247906;28;20068;-59
2021/12/08 16:31:35;;;;;;;36.42;28.30;;;;;;;;;;10246766;28;20061;-59
2021/12/08 16:36:35;;;;;;;46.10;32.60;;;;;;;;;;10245084;28;20080;-59
2021/12/08 16:46:49;;;;;;;47.67;33.17;;;;;;;;;;10247499;28;20491;-59
2021/12/08 16:51:49;;;;;;;39.70;27.67;;;;;;;;;;10250049;28;20084;-59
2021/12/08 16:56:48;;;;;;;58.13;39.65;;;;;;;;;;10244170;28;20088;-59
2021/12/08 17:01:46;;;;;;;62.35;45.35;;;;;;;;;;10246676;28;20088;-60
2021/12/08 17:06:46;;;;;;;57.28;41.05;;;;;;;;;;10246615;28;20103;-59
2021/12/08 17:11:46;;;;;;;64.40;45.10;;;;;;;;;;10248313;28;20068;-60
2021/12/08 17:16:44;;;;;;;185.40;99.80;;;;;;;;;;10246854;28;20065;-60
2021/12/08 17:21:44;;;;;;;45.85;30.17;;;;;;;;;;10245946;28;20073;-60
2021/12/08 17:26:46;;;;;;;79.25;51.38;;;;;;;;;;10245675;28;20041;-60
2021/12/08 17:31:45;;;;;;;87.65;54.50;;;;;;;;;;10245848;28;20576;-60
2021/12/08 17:36:45;;;;;;;120.45;77.88;;;;;;;;;;10242422;28;20399;-60
2021/12/08 17:41:47;;;;;;;75.45;51.85;;;;;;;;;;10243183;28;20131;-60
2021/12/08 17:46:49;;;;;;;72.53;51.63;;;;;;;;;;10245321;28;20080;-60
2021/12/08 17:51:47;;;;;;;43.47;31.80;;;;;;;;;;10243548;28;20454;-59
2021/12/08 17:56:47;;;;;;;44.47;29.92;;;;;;;;;;10244238;28;20072;-59
2021/12/08 18:01:48;;;;;;;62.63;40.42;;;;;;;;;;10252537;28;20080;-59
2021/12/08 18:06:47;;;;;;;51.58;35.60;;;;;;;;;;10242242;28;20069;-59
2021/12/08 18:11:48;;;;;;;45.30;33.38;;;;;;;;;;10245631;28;20140;-59
2021/12/08 18:16:47;;;;;;;49.90;33.63;;;;;;;;;;10243460;28;20068;-58
2021/12/08 18:21:46;;;;;;;57.42;40.38;;;;;;;;;;10245371;28;20072;-60
2021/12/08 18:26:46;;;;;;;29.08;22.95;;;;;;;;;;10248726;28;20091;-58
2021/12/08 18:31:44;;;;;;;45.08;32.88;;;;;;;;;;10245761;28;20099;-59
2021/12/08 18:36:44;;;;;;;39.70;31.75;;;;;;;;;;10244928;28;20530;-59
2021/12/08 18:41:42;;;;;;;37.83;25.67;;;;;;;;;;10249828;28;20088;-59
2021/12/08 18:46:42;;;;;;;35.17;24.80;;;;;;;;;;10251307;28;20065;-58
2021/12/08 18:51:46;;;;;;;39.75;26.55;;;;;;;;;;10249752;28;20091;-60
2021/12/08 18:56:47;;;;;;;32.28;25.70;;;;;;;;;;10244285;28;20073;-59
2021/12/08 19:01:48;;;;;;;34.28;22.73;;;;;;;;;;10245074;28;20089;-59
2021/12/08 19:06:47;;;;;;;42.03;24.45;;;;;;;;;;10245238;28;20073;-59
2021/12/08 19:11:45;;;;;;;37.00;25.08;;;;;;;;;;10241944;28;20557;-60
2021/12/08 19:16:44;;;;;;;51.97;35.42;;;;;;;;;;10242135;28;20061;-59
2021/12/08 19:21:44;;;;;;;59.13;40.58;;;;;;;;;;10254477;28;20080;-59
2021/12/08 19:26:42;;;;;;;40.88;30.85;;;;;;;;;;10248437;28;20558;-59
2021/12/08 19:31:46;;;;;;;29.80;21.63;;;;;;;;;;10248778;28;20077;-59
2021/12/08 19:36:46;;;;;;;27.80;21.15;;;;;;;;;;10245959;28;20069;-59
2021/12/08 19:41:45;;;;;;;31.75;24.80;;;;;;;;;;10251325;28;20084;-59
2021/12/08 19:46:45;;;;;;;32.30;21.38;;;;;;;;;;10247512;28;20069;-60
2021/12/08 19:51:46;;;;;;;32.53;24.27;;;;;;;;;;10249296;28;20080;-58
2021/12/08 19:56:49;;;;;;;30.70;20.70;;;;;;;;;;10257968;28;20085;-58
2021/12/08 20:01:48;;;;;;;29.90;22.27;;;;;;;;;;10251768;28;20469;-57
2021/12/08 20:06:46;;;;;;;44.22;28.25;;;;;;;;;;10249157;28;20261;-59
2021/12/08 20:11:47;;;;;;;34.92;24.88;;;;;;;;;;10249597;28;20090;-59
2021/12/08 20:16:47;;;;;;;32.80;22.25;;;;;;;;;;10266793;28;20502;-58
2021/12/08 20:21:45;;;;;;;33.53;23.00;;;;;;;;;;10244684;28;20073;-58
2021/12/08 20:26:43;;;;;;;36.05;23.23;;;;;;;;;;10243201;28;20080;-59
2021/12/08 20:31:42;;;;;;;47.80;29.42;;;;;;;;;;10251681;28;20467;-55
2021/12/08 20:36:43;;;;;;;50.30;34.15;;;;;;;;;;10251442;28;20478;-59
2021/12/08 20:41:42;;;;;;;48.15;34.22;;;;;;;;;;10253303;28;20071;-58
2021/12/08 20:46:42;;;;;;;29.52;22.05;;;;;;;;;;10248066;28;20395;-59
2021/12/08 20:51:41;;;;;;;35.00;24.95;;;;;;;;;;10251494;28;20056;-59
2021/12/08 20:56:42;;;;;;;30.23;24.83;;;;;;;;;;10245592;28;20077;-59
2021/12/08 21:01:51;;;;;;;29.88;22.25;;;;;;;;;;10244119;28;20069;-58
2021/12/08 21:06:50;;;;;;;36.72;27.52;;;;;;;;;;10243923;28;20073;-58
2021/12/08 21:11:54;;;;;;;42.88;31.23;;;;;;;;;;10249579;28;20084;-59
2021/12/08 21:16:54;;;;;;;41.33;28.83;;;;;;;;;;10250658;28;20091;-59
2021/12/08 21:21:52;;;;;;;36.03;26.98;;;;;;;;;;10249330;28;20092;-59
2021/12/08 21:26:50;;;;;;;46.85;35.35;;;;;;;;;;10246980;28;20072;-61
2021/12/08 21:31:50;;;;;;;45.72;33.47;;;;;;;;;;10244697;28;20061;-59
2021/12/08 21:36:50;;;;;;;145.57;76.57;;;;;;;;;;10244203;28;20552;-60
2021/12/08 21:41:49;;;;;;;59.63;40.95;;;;;;;;;;10244160;28;20498;-60
2021/12/08 21:46:47;;;;;;;45.15;29.80;;;;;;;;;;10251226;28;20079;-59
2021/12/08 21:51:47;;;;;;;78.88;51.05;;;;;;;;;;10248978;28;20064;-59
2021/12/08 21:56:45;;;;;;;49.85;33.50;;;;;;;;;;10250760;28;20118;-59
2021/12/08 22:01:44;;;;;;;66.63;47.70;;;;;;;;;;10253487;28;20458;-55
2021/12/08 22:06:43;;;;;;;76.13;56.35;;;;;;;;;;10258876;28;20499;-59
2021/12/08 22:11:43;;;;;;;42.30;28.63;;;;;;;;;;10253496;28;20065;-58
2021/12/08 22:16:41;;;;;;;51.45;33.08;;;;;;;;;;10252241;28;20064;-59
2021/12/08 22:21:40;;;;;;;63.58;39.60;;;;;;;;;;10252452;28;20081;-59
2021/12/08 22:26:41;;;;;;;57.85;37.88;;;;;;;;;;10251354;28;20073;-59
2021/12/08 22:31:41;;;;;;;44.70;30.63;;;;;;;;;;10244359;28;20081;-60
2021/12/08 22:36:39;;;;;;;44.42;29.33;;;;;;;;;;10250072;28;20717;-60
2021/12/08 22:41:38;;;;;;;50.45;33.13;;;;;;;;;;10250339;28;20722;-59
2021/12/08 22:46:36;;;;;;;95.53;54.65;;;;;;;;;;10251665;28;20069;-61
2021/12/08 22:51:36;;;;;;;100.65;57.28;;;;;;;;;;10249678;28;20095;-60
2021/12/08 22:56:35;;;;;;;82.18;48.80;;;;;;;;;;10251351;28;20537;-59
2021/12/08 23:01:34;;;;;;;100.45;58.08;;;;;;;;;;10251411;28;20085;-60
2021/12/08 23:06:32;;;;;;;84.90;48.22;;;;;;;;;;10245016;28;20133;-59
2021/12/08 23:11:33;;;;;;;64.85;41.38;;;;;;;;;;10243917;28;20065;-60
2021/12/08 23:16:31;;;;;;;61.80;38.88;;;;;;;;;;10249319;28;20080;-59
2021/12/08 23:21:31;;;;;;;37.35;25.70;;;;;;;;;;10249344;28;20525;-60
2021/12/08 23:26:31;;;;;;;30.85;21.65;;;;;;;;;;10249038;28;20068;-60
2021/12/08 23:31:30;;;;;;;26.80;18.98;;;;;;;;;;10249437;28;20072;-60
2021/12/08 23:36:41;;;;;;;28.08;20.02;;;;;;;;;;10255346;28;20072;-58
2021/12/08 23:41:41;;;;;;;26.80;21.38;;;;;;;;;;10247617;28;20080;-58
2021/12/08 23:46:40;;;;;;;37.35;27.45;;;;;;;;;;10248479;28;20458;-59
2021/12/08 23:51:39;;;;;;;32.22;22.63;;;;;;;;;;10249568;28;20107;-59
2021/12/08 23:56:43;;;;;;;25.00;19.50;;;;;;;;;;10246909;28;20081;-59
